sensor_id;sensor_type;location;lat;lon;timestamp;P1;durP1;ratioP1;P2;durP2;ratioP2
57327;SDS011;43162;51.040;18.244;2023-05-29T00:00:04;15.90;;;2.20;;
57327;SDS011;43162;51.040;18.244;2023-05-29T00:02:32;3.60;;;1.70;;
57327;SDS011;43162;51.040;18.244;2023-05-29T00:04:58;4.00;;;1.70;;
57327;SDS011;43162;51.040;18.244;2023-05-29T00:07:23;4.60;;;1.50;;
57327;SDS011;43162;51.040;18.244;2023-05-29T00:09:49;2.70;;;1.30;;
57327;SDS011;43162;51.040;18.244;2023-05-29T00:12:15;4.60;;;1.80;;
57327;SDS011;43162;51.040;18.244;2023-05-29T00:14:41;3.50;;;1.90;;
57327;SDS011;43162;51.040;18.244;2023-05-29T00:17:07;7.30;;;2.00;;
57327;SDS011;43162;51.040;18.244;2023-05-29T00:19:32;7.90;;;2.30;;
57327;SDS011;43162;51.040;18.244;2023-05-29T00:21:58;4.80;;;1.70;;
57327;SDS011;43162;51.040;18.244;2023-05-29T00:24:23;5.20;;;2.00;;
57327;SDS011;43162;51.040;18.244;2023-05-29T00:26:48;9.40;;;2.20;;
57327;SDS011;43162;51.040;18.244;2023-05-29T00:29:14;6.40;;;1.80;;
57327;SDS011;43162;51.040;18.244;2023-05-29T00:31:40;6.20;;;2.20;;
57327;SDS011;43162;51.040;18.244;2023-05-29T00:34:06;5.20;;;1.90;;
57327;SDS011;43162;51.040;18.244;2023-05-29T00:36:31;10.10;;;2.10;;
57327;SDS011;43162;51.040;18.244;2023-05-29T00:38:57;4.30;;;1.90;;
57327;SDS011;43162;51.040;18.244;2023-05-29T00:41:22;7.50;;;1.80;;
57327;SDS011;43162;51.040;18.244;2023-05-29T00:43:48;5.00;;;1.90;;
57327;SDS011;43162;51.040;18.244;2023-05-29T00:46:14;4.30;;;1.90;;
57327;SDS011;43162;51.040;18.244;2023-05-29T00:48:44;2.80;;;1.60;;
57327;SDS011;43162;51.040;18.244;2023-05-29T00:51:10;8.40;;;1.80;;
57327;SDS011;43162;51.040;18.244;2023-05-29T00:53:36;4.10;;;2.00;;
57327;SDS011;43162;51.040;18.244;2023-05-29T00:56:02;4.10;;;1.80;;
57327;SDS011;43162;51.040;18.244;2023-05-29T00:58:27;8.70;;;3.40;;
57327;SDS011;43162;51.040;18.244;2023-05-29T01:00:53;3.90;;;2.00;;
57327;SDS011;43162;51.040;18.244;2023-05-29T01:03:19;5.50;;;2.30;;
57327;SDS011;43162;51.040;18.244;2023-05-29T01:05:45;5.10;;;2.00;;
57327;SDS011;43162;51.040;18.244;2023-05-29T01:08:11;11.10;;;2.40;;
57327;SDS011;43162;51.040;18.244;2023-05-29T01:10:37;8.20;;;2.10;;
57327;SDS011;43162;51.040;18.244;2023-05-29T01:13:03;4.90;;;1.90;;
57327;SDS011;43162;51.040;18.244;2023-05-29T01:20:44;5.50;;;2.10;;
57327;SDS011;43162;51.040;18.244;2023-05-29T01:25:56;7.50;;;1.60;;
57327;SDS011;43162;51.040;18.244;2023-05-29T01:28:25;5.30;;;2.10;;
57327;SDS011;43162;51.040;18.244;2023-05-29T01:30:51;6.00;;;2.10;;
57327;SDS011;43162;51.040;18.244;2023-05-29T01:33:18;4.30;;;2.20;;
57327;SDS011;43162;51.040;18.244;2023-05-29T01:35:43;6.40;;;2.10;;
57327;SDS011;43162;51.040;18.244;2023-05-29T01:38:09;6.00;;;2.40;;
57327;SDS011;43162;51.040;18.244;2023-05-29T01:40:35;6.70;;;2.10;;
57327;SDS011;43162;51.040;18.244;2023-05-29T01:43:01;15.90;;;3.00;;
57327;SDS011;43162;51.040;18.244;2023-05-29T01:45:27;7.10;;;2.50;;
57327;SDS011;43162;51.040;18.244;2023-05-29T01:47:53;6.40;;;2.70;;
57327;SDS011;43162;51.040;18.244;2023-05-29T01:50:19;5.10;;;2.30;;
57327;SDS011;43162;51.040;18.244;2023-05-29T01:52:45;5.90;;;2.60;;
57327;SDS011;43162;51.040;18.244;2023-05-29T01:55:11;7.70;;;2.60;;
57327;SDS011;43162;51.040;18.244;2023-05-29T01:57:36;7.40;;;2.40;;
57327;SDS011;43162;51.040;18.244;2023-05-29T02:00:03;5.60;;;2.60;;
57327;SDS011;43162;51.040;18.244;2023-05-29T02:02:40;8.30;;;2.30;;
57327;SDS011;43162;51.040;18.244;2023-05-29T02:05:07;5.10;;;2.50;;
57327;SDS011;43162;51.040;18.244;2023-05-29T02:07:33;7.90;;;2.80;;
57327;SDS011;43162;51.040;18.244;2023-05-29T02:09:58;3.80;;;2.20;;
57327;SDS011;43162;51.040;18.244;2023-05-29T02:12:24;5.70;;;2.20;;
57327;SDS011;43162;51.040;18.244;2023-05-29T02:14:49;3.40;;;2.00;;
57327;SDS011;43162;51.040;18.244;2023-05-29T02:17:15;6.70;;;2.30;;
57327;SDS011;43162;51.040;18.244;2023-05-29T02:19:40;7.10;;;2.50;;
57327;SDS011;43162;51.040;18.244;2023-05-29T02:22:07;8.60;;;3.60;;
57327;SDS011;43162;51.040;18.244;2023-05-29T02:24:32;6.30;;;2.60;;
57327;SDS011;43162;51.040;18.244;2023-05-29T02:26:58;5.50;;;2.30;;
57327;SDS011;43162;51.040;18.244;2023-05-29T02:29:23;4.30;;;1.90;;
57327;SDS011;43162;51.040;18.244;2023-05-29T02:31:49;3.50;;;2.10;;
57327;SDS011;43162;51.040;18.244;2023-05-29T02:34:14;8.30;;;3.30;;
57327;SDS011;43162;51.040;18.244;2023-05-29T02:36:39;7.70;;;3.00;;
57327;SDS011;43162;51.040;18.244;2023-05-29T02:39:05;4.80;;;2.70;;
57327;SDS011;43162;51.040;18.244;2023-05-29T02:41:31;7.30;;;2.90;;
57327;SDS011;43162;51.040;18.244;2023-05-29T02:43:57;6.10;;;2.70;;
57327;SDS011;43162;51.040;18.244;2023-05-29T02:46:22;14.50;;;3.20;;
57327;SDS011;43162;51.040;18.244;2023-05-29T02:48:47;4.60;;;2.80;;
57327;SDS011;43162;51.040;18.244;2023-05-29T02:51:13;16.00;;;3.70;;
57327;SDS011;43162;51.040;18.244;2023-05-29T02:53:39;10.00;;;2.60;;
57327;SDS011;43162;51.040;18.244;2023-05-29T02:56:05;8.00;;;2.60;;
57327;SDS011;43162;51.040;18.244;2023-05-29T02:58:31;5.80;;;3.80;;
57327;SDS011;43162;51.040;18.244;2023-05-29T03:00:59;9.70;;;2.80;;
57327;SDS011;43162;51.040;18.244;2023-05-29T03:03:25;6.80;;;3.00;;
57327;SDS011;43162;51.040;18.244;2023-05-29T03:05:50;6.50;;;2.80;;
57327;SDS011;43162;51.040;18.244;2023-05-29T03:08:16;9.60;;;2.90;;
57327;SDS011;43162;51.040;18.244;2023-05-29T03:10:43;5.10;;;3.00;;
57327;SDS011;43162;51.040;18.244;2023-05-29T03:13:09;7.80;;;3.30;;
57327;SDS011;43162;51.040;18.244;2023-05-29T03:15:35;11.90;;;3.10;;
57327;SDS011;43162;51.040;18.244;2023-05-29T03:18:00;6.20;;;3.20;;
57327;SDS011;43162;51.040;18.244;2023-05-29T03:20:26;6.80;;;3.20;;
57327;SDS011;43162;51.040;18.244;2023-05-29T03:22:54;8.70;;;3.40;;
57327;SDS011;43162;51.040;18.244;2023-05-29T03:25:20;5.50;;;3.20;;
57327;SDS011;43162;51.040;18.244;2023-05-29T03:27:46;9.70;;;3.50;;
57327;SDS011;43162;51.040;18.244;2023-05-29T03:30:11;9.70;;;4.00;;
57327;SDS011;43162;51.040;18.244;2023-05-29T03:32:37;6.40;;;3.80;;
57327;SDS011;43162;51.040;18.244;2023-05-29T03:35:03;8.90;;;3.50;;
57327;SDS011;43162;51.040;18.244;2023-05-29T03:37:29;6.90;;;3.20;;
57327;SDS011;43162;51.040;18.244;2023-05-29T03:39:54;6.10;;;2.90;;
57327;SDS011;43162;51.040;18.244;2023-05-29T03:42:20;8.50;;;3.40;;
57327;SDS011;43162;51.040;18.244;2023-05-29T03:44:46;5.50;;;2.70;;
57327;SDS011;43162;51.040;18.244;2023-05-29T03:47:12;7.40;;;3.10;;
57327;SDS011;43162;51.040;18.244;2023-05-29T03:49:37;5.60;;;3.40;;
57327;SDS011;43162;51.040;18.244;2023-05-29T03:52:03;5.50;;;3.00;;
57327;SDS011;43162;51.040;18.244;2023-05-29T03:54:29;8.90;;;3.20;;
57327;SDS011;43162;51.040;18.244;2023-05-29T03:56:54;7.40;;;3.30;;
57327;SDS011;43162;51.040;18.244;2023-05-29T03:59:19;8.40;;;4.60;;
57327;SDS011;43162;51.040;18.244;2023-05-29T04:01:45;10.10;;;4.80;;
57327;SDS011;43162;51.040;18.244;2023-05-29T04:04:11;8.80;;;4.70;;
57327;SDS011;43162;51.040;18.244;2023-05-29T04:06:36;10.90;;;5.00;;
57327;SDS011;43162;51.040;18.244;2023-05-29T04:09:06;16.00;;;10.20;;
57327;SDS011;43162;51.040;18.244;2023-05-29T04:11:35;27.80;;;13.10;;
57327;SDS011;43162;51.040;18.244;2023-05-29T04:14:01;19.10;;;7.70;;
57327;SDS011;43162;51.040;18.244;2023-05-29T04:16:27;10.30;;;4.40;;
57327;SDS011;43162;51.040;18.244;2023-05-29T04:18:52;10.90;;;3.60;;
57327;SDS011;43162;51.040;18.244;2023-05-29T04:21:18;6.20;;;2.70;;
57327;SDS011;43162;51.040;18.244;2023-05-29T04:23:43;7.80;;;3.50;;
57327;SDS011;43162;51.040;18.244;2023-05-29T04:26:08;5.30;;;3.10;;
57327;SDS011;43162;51.040;18.244;2023-05-29T04:28:35;3.70;;;2.90;;
57327;SDS011;43162;51.040;18.244;2023-05-29T04:31:02;7.50;;;3.90;;
57327;SDS011;43162;51.040;18.244;2023-05-29T04:33:28;8.60;;;3.40;;
57327;SDS011;43162;51.040;18.244;2023-05-29T04:35:54;17.10;;;8.90;;
57327;SDS011;43162;51.040;18.244;2023-05-29T04:38:20;19.60;;;10.40;;
57327;SDS011;43162;51.040;18.244;2023-05-29T04:40:50;15.90;;;7.40;;
57327;SDS011;43162;51.040;18.244;2023-05-29T04:43:16;9.90;;;5.10;;
57327;SDS011;43162;51.040;18.244;2023-05-29T04:45:42;7.10;;;4.20;;
57327;SDS011;43162;51.040;18.244;2023-05-29T04:48:08;7.60;;;4.60;;
57327;SDS011;43162;51.040;18.244;2023-05-29T04:50:34;12.00;;;4.60;;
57327;SDS011;43162;51.040;18.244;2023-05-29T04:53:00;5.20;;;3.40;;
57327;SDS011;43162;51.040;18.244;2023-05-29T04:55:26;6.60;;;3.40;;
57327;SDS011;43162;51.040;18.244;2023-05-29T04:57:52;7.90;;;3.30;;
57327;SDS011;43162;51.040;18.244;2023-05-29T05:00:18;6.70;;;3.20;;
57327;SDS011;43162;51.040;18.244;2023-05-29T05:02:44;5.40;;;2.50;;
57327;SDS011;43162;51.040;18.244;2023-05-29T05:05:10;8.40;;;3.40;;
57327;SDS011;43162;51.040;18.244;2023-05-29T05:07:35;6.80;;;3.60;;
57327;SDS011;43162;51.040;18.244;2023-05-29T05:10:04;6.60;;;3.50;;
57327;SDS011;43162;51.040;18.244;2023-05-29T05:12:31;5.90;;;3.30;;
57327;SDS011;43162;51.040;18.244;2023-05-29T05:14:57;8.10;;;3.40;;
57327;SDS011;43162;51.040;18.244;2023-05-29T05:17:22;5.50;;;2.70;;
57327;SDS011;43162;51.040;18.244;2023-05-29T05:19:48;4.10;;;2.90;;
57327;SDS011;43162;51.040;18.244;2023-05-29T05:22:14;10.50;;;3.90;;
57327;SDS011;43162;51.040;18.244;2023-05-29T05:24:40;4.70;;;3.00;;
57327;SDS011;43162;51.040;18.244;2023-05-29T05:27:05;6.80;;;3.10;;
57327;SDS011;43162;51.040;18.244;2023-05-29T05:29:31;7.20;;;3.40;;
57327;SDS011;43162;51.040;18.244;2023-05-29T05:31:57;6.00;;;3.40;;
57327;SDS011;43162;51.040;18.244;2023-05-29T05:34:22;11.00;;;3.60;;
57327;SDS011;43162;51.040;18.244;2023-05-29T05:36:48;8.80;;;3.10;;
57327;SDS011;43162;51.040;18.244;2023-05-29T05:39:14;7.90;;;3.20;;
57327;SDS011;43162;51.040;18.244;2023-05-29T05:41:40;7.60;;;3.10;;
57327;SDS011;43162;51.040;18.244;2023-05-29T05:44:06;4.50;;;2.70;;
57327;SDS011;43162;51.040;18.244;2023-05-29T05:46:31;8.40;;;3.50;;
57327;SDS011;43162;51.040;18.244;2023-05-29T05:48:57;6.20;;;3.30;;
57327;SDS011;43162;51.040;18.244;2023-05-29T05:51:23;6.10;;;2.80;;
57327;SDS011;43162;51.040;18.244;2023-05-29T05:53:49;8.90;;;3.90;;
57327;SDS011;43162;51.040;18.244;2023-05-29T05:56:14;30.70;;;6.40;;
57327;SDS011;43162;51.040;18.244;2023-05-29T05:58:40;15.50;;;5.40;;
57327;SDS011;43162;51.040;18.244;2023-05-29T06:01:07;9.40;;;3.90;;
57327;SDS011;43162;51.040;18.244;2023-05-29T06:03:33;9.10;;;3.50;;
57327;SDS011;43162;51.040;18.244;2023-05-29T06:05:59;10.90;;;3.80;;
57327;SDS011;43162;51.040;18.244;2023-05-29T06:08:25;4.10;;;3.20;;
57327;SDS011;43162;51.040;18.244;2023-05-29T06:10:51;7.50;;;3.20;;
57327;SDS011;43162;51.040;18.244;2023-05-29T06:13:16;6.90;;;3.20;;
57327;SDS011;43162;51.040;18.244;2023-05-29T06:15:42;6.00;;;3.20;;
57327;SDS011;43162;51.040;18.244;2023-05-29T06:18:08;10.40;;;3.60;;
57327;SDS011;43162;51.040;18.244;2023-05-29T06:20:33;5.00;;;2.70;;
57327;SDS011;43162;51.040;18.244;2023-05-29T06:22:59;9.00;;;3.40;;
57327;SDS011;43162;51.040;18.244;2023-05-29T06:25:24;7.20;;;3.30;;
57327;SDS011;43162;51.040;18.244;2023-05-29T06:28:01;6.40;;;3.60;;
57327;SDS011;43162;51.040;18.244;2023-05-29T06:30:27;9.30;;;3.60;;
57327;SDS011;43162;51.040;18.244;2023-05-29T06:32:53;6.80;;;4.10;;
57327;SDS011;43162;51.040;18.244;2023-05-29T06:35:18;7.60;;;3.70;;
57327;SDS011;43162;51.040;18.244;2023-05-29T06:37:47;10.00;;;3.90;;
57327;SDS011;43162;51.040;18.244;2023-05-29T06:40:13;9.70;;;4.00;;
57327;SDS011;43162;51.040;18.244;2023-05-29T06:42:38;5.30;;;3.70;;
57327;SDS011;43162;51.040;18.244;2023-05-29T06:45:04;21.50;;;4.10;;
57327;SDS011;43162;51.040;18.244;2023-05-29T06:47:29;7.50;;;3.30;;
57327;SDS011;43162;51.040;18.244;2023-05-29T06:49:55;4.30;;;2.70;;
57327;SDS011;43162;51.040;18.244;2023-05-29T06:52:21;6.80;;;3.00;;
57327;SDS011;43162;51.040;18.244;2023-05-29T06:54:46;7.40;;;2.60;;
57327;SDS011;43162;51.040;18.244;2023-05-29T06:57:12;4.60;;;2.70;;
57327;SDS011;43162;51.040;18.244;2023-05-29T06:59:38;3.70;;;2.50;;
57327;SDS011;43162;51.040;18.244;2023-05-29T07:02:03;4.80;;;3.10;;
57327;SDS011;43162;51.040;18.244;2023-05-29T07:04:29;9.10;;;3.60;;
57327;SDS011;43162;51.040;18.244;2023-05-29T07:06:54;10.50;;;3.70;;
57327;SDS011;43162;51.040;18.244;2023-05-29T07:09:21;9.00;;;3.60;;
57327;SDS011;43162;51.040;18.244;2023-05-29T07:11:46;8.10;;;3.20;;
57327;SDS011;43162;51.040;18.244;2023-05-29T07:14:11;6.90;;;2.70;;
57327;SDS011;43162;51.040;18.244;2023-05-29T07:16:37;5.40;;;2.70;;
57327;SDS011;43162;51.040;18.244;2023-05-29T07:19:03;4.90;;;2.80;;
57327;SDS011;43162;51.040;18.244;2023-05-29T07:21:28;3.50;;;2.60;;
57327;SDS011;43162;51.040;18.244;2023-05-29T07:23:54;6.10;;;2.80;;
57327;SDS011;43162;51.040;18.244;2023-05-29T07:26:19;4.20;;;2.60;;
57327;SDS011;43162;51.040;18.244;2023-05-29T07:28:48;4.80;;;3.00;;
57327;SDS011;43162;51.040;18.244;2023-05-29T07:31:14;6.50;;;2.90;;
57327;SDS011;43162;51.040;18.244;2023-05-29T07:33:40;12.90;;;3.10;;
57327;SDS011;43162;51.040;18.244;2023-05-29T07:36:07;9.30;;;2.50;;
57327;SDS011;43162;51.040;18.244;2023-05-29T07:38:32;6.60;;;2.60;;
57327;SDS011;43162;51.040;18.244;2023-05-29T07:40:58;8.80;;;3.10;;
57327;SDS011;43162;51.040;18.244;2023-05-29T07:43:23;7.50;;;2.30;;
57327;SDS011;43162;51.040;18.244;2023-05-29T07:45:49;7.00;;;2.40;;
57327;SDS011;43162;51.040;18.244;2023-05-29T07:48:14;3.80;;;1.90;;
57327;SDS011;43162;51.040;18.244;2023-05-29T07:50:40;8.00;;;3.10;;
57327;SDS011;43162;51.040;18.244;2023-05-29T07:53:05;6.70;;;3.20;;
57327;SDS011;43162;51.040;18.244;2023-05-29T07:55:32;5.40;;;2.70;;
57327;SDS011;43162;51.040;18.244;2023-05-29T07:57:57;7.30;;;2.30;;
57327;SDS011;43162;51.040;18.244;2023-05-29T08:00:22;9.30;;;3.00;;
57327;SDS011;43162;51.040;18.244;2023-05-29T08:02:48;5.70;;;3.30;;
57327;SDS011;43162;51.040;18.244;2023-05-29T08:05:14;5.70;;;3.60;;
57327;SDS011;43162;51.040;18.244;2023-05-29T08:07:40;10.30;;;3.50;;
57327;SDS011;43162;51.040;18.244;2023-05-29T08:10:07;5.90;;;2.50;;
57327;SDS011;43162;51.040;18.244;2023-05-29T08:12:33;8.10;;;3.20;;
57327;SDS011;43162;51.040;18.244;2023-05-29T08:15:00;4.80;;;2.40;;
57327;SDS011;43162;51.040;18.244;2023-05-29T08:17:25;8.30;;;2.80;;
57327;SDS011;43162;51.040;18.244;2023-05-29T08:19:51;7.20;;;2.70;;
57327;SDS011;43162;51.040;18.244;2023-05-29T08:22:16;8.10;;;2.60;;
57327;SDS011;43162;51.040;18.244;2023-05-29T08:24:42;5.80;;;2.50;;
57327;SDS011;43162;51.040;18.244;2023-05-29T08:27:07;3.70;;;2.50;;
57327;SDS011;43162;51.040;18.244;2023-05-29T08:29:33;10.30;;;2.30;;
57327;SDS011;43162;51.040;18.244;2023-05-29T08:31:59;7.60;;;4.40;;
57327;SDS011;43162;51.040;18.244;2023-05-29T08:34:24;6.70;;;2.60;;
57327;SDS011;43162;51.040;18.244;2023-05-29T08:36:50;8.00;;;2.20;;
57327;SDS011;43162;51.040;18.244;2023-05-29T08:39:17;7.80;;;2.50;;
57327;SDS011;43162;51.040;18.244;2023-05-29T08:44:19;13.30;;;2.50;;
57327;SDS011;43162;51.040;18.244;2023-05-29T08:46:47;5.00;;;2.50;;
57327;SDS011;43162;51.040;18.244;2023-05-29T08:49:15;7.30;;;2.10;;
57327;SDS011;43162;51.040;18.244;2023-05-29T08:51:42;11.10;;;2.40;;
57327;SDS011;43162;51.040;18.244;2023-05-29T08:54:11;4.90;;;1.70;;
57327;SDS011;43162;51.040;18.244;2023-05-29T08:56:37;2.90;;;1.20;;
57327;SDS011;43162;51.040;18.244;2023-05-29T08:59:02;2.20;;;1.30;;
57327;SDS011;43162;51.040;18.244;2023-05-29T09:01:29;7.80;;;2.10;;
57327;SDS011;43162;51.040;18.244;2023-05-29T09:03:56;7.00;;;2.10;;
57327;SDS011;43162;51.040;18.244;2023-05-29T09:06:22;4.90;;;2.00;;
57327;SDS011;43162;51.040;18.244;2023-05-29T09:08:48;4.00;;;1.60;;
57327;SDS011;43162;51.040;18.244;2023-05-29T09:11:14;6.70;;;1.70;;
57327;SDS011;43162;51.040;18.244;2023-05-29T09:13:40;4.90;;;1.80;;
57327;SDS011;43162;51.040;18.244;2023-05-29T09:16:05;7.10;;;2.30;;
57327;SDS011;43162;51.040;18.244;2023-05-29T09:18:32;3.40;;;1.60;;
57327;SDS011;43162;51.040;18.244;2023-05-29T09:20:58;8.00;;;1.90;;
57327;SDS011;43162;51.040;18.244;2023-05-29T09:23:25;3.40;;;1.80;;
57327;SDS011;43162;51.040;18.244;2023-05-29T09:25:51;9.70;;;2.00;;
57327;SDS011;43162;51.040;18.244;2023-05-29T09:28:18;3.90;;;1.50;;
57327;SDS011;43162;51.040;18.244;2023-05-29T09:30:44;4.10;;;1.50;;
57327;SDS011;43162;51.040;18.244;2023-05-29T09:33:12;6.30;;;1.70;;
57327;SDS011;43162;51.040;18.244;2023-05-29T09:35:40;3.30;;;1.40;;
57327;SDS011;43162;51.040;18.244;2023-05-29T09:38:05;5.30;;;2.20;;
57327;SDS011;43162;51.040;18.244;2023-05-29T09:40:37;4.20;;;1.60;;
57327;SDS011;43162;51.040;18.244;2023-05-29T09:45:30;5.10;;;1.50;;
57327;SDS011;43162;51.040;18.244;2023-05-29T09:47:56;6.80;;;1.70;;
57327;SDS011;43162;51.040;18.244;2023-05-29T09:50:25;6.30;;;1.80;;
57327;SDS011;43162;51.040;18.244;2023-05-29T09:52:51;3.70;;;1.80;;
57327;SDS011;43162;51.040;18.244;2023-05-29T09:55:22;6.80;;;1.20;;
57327;SDS011;43162;51.040;18.244;2023-05-29T09:57:48;4.60;;;1.70;;
57327;SDS011;43162;51.040;18.244;2023-05-29T10:00:15;5.80;;;1.30;;
57327;SDS011;43162;51.040;18.244;2023-05-29T10:02:42;8.00;;;1.70;;
57327;SDS011;43162;51.040;18.244;2023-05-29T10:05:08;4.50;;;1.30;;
57327;SDS011;43162;51.040;18.244;2023-05-29T10:07:35;5.10;;;1.70;;
57327;SDS011;43162;51.040;18.244;2023-05-29T10:10:03;6.50;;;1.70;;
57327;SDS011;43162;51.040;18.244;2023-05-29T10:12:29;4.50;;;1.90;;
57327;SDS011;43162;51.040;18.244;2023-05-29T10:14:56;25.20;;;3.30;;
57327;SDS011;43162;51.040;18.244;2023-05-29T10:17:23;6.70;;;1.80;;
57327;SDS011;43162;51.040;18.244;2023-05-29T10:19:50;11.00;;;2.20;;
57327;SDS011;43162;51.040;18.244;2023-05-29T10:22:18;7.80;;;2.00;;
57327;SDS011;43162;51.040;18.244;2023-05-29T10:24:45;3.80;;;1.70;;
57327;SDS011;43162;51.040;18.244;2023-05-29T10:27:11;9.20;;;1.70;;
57327;SDS011;43162;51.040;18.244;2023-05-29T10:29:44;4.20;;;1.50;;
57327;SDS011;43162;51.040;18.244;2023-05-29T10:32:20;2.50;;;1.40;;
57327;SDS011;43162;51.040;18.244;2023-05-29T10:39:47;4.30;;;1.80;;
57327;SDS011;43162;51.040;18.244;2023-05-29T10:44:57;6.20;;;1.40;;
57327;SDS011;43162;51.040;18.244;2023-05-29T10:47:23;3.60;;;1.50;;
57327;SDS011;43162;51.040;18.244;2023-05-29T10:49:49;3.90;;;1.60;;
57327;SDS011;43162;51.040;18.244;2023-05-29T10:52:16;3.10;;;1.30;;
57327;SDS011;43162;51.040;18.244;2023-05-29T10:54:53;8.80;;;1.60;;
57327;SDS011;43162;51.040;18.244;2023-05-29T10:57:22;5.20;;;1.60;;
57327;SDS011;43162;51.040;18.244;2023-05-29T10:59:56;7.30;;;2.10;;
57327;SDS011;43162;51.040;18.244;2023-05-29T11:02:22;5.50;;;2.20;;
57327;SDS011;43162;51.040;18.244;2023-05-29T11:05:03;6.70;;;1.60;;
57327;SDS011;43162;51.040;18.244;2023-05-29T11:07:50;4.30;;;1.80;;
57327;SDS011;43162;51.040;18.244;2023-05-29T11:10:18;7.20;;;1.90;;
57327;SDS011;43162;51.040;18.244;2023-05-29T11:13:03;4.50;;;1.80;;
57327;SDS011;43162;51.040;18.244;2023-05-29T11:15:30;7.10;;;1.80;;
57327;SDS011;43162;51.040;18.244;2023-05-29T11:17:56;4.30;;;1.60;;
57327;SDS011;43162;51.040;18.244;2023-05-29T11:20:37;3.10;;;1.60;;
57327;SDS011;43162;51.040;18.244;2023-05-29T11:23:03;4.10;;;1.60;;
57327;SDS011;43162;51.040;18.244;2023-05-29T11:25:33;8.20;;;1.80;;
57327;SDS011;43162;51.040;18.244;2023-05-29T11:27:59;4.30;;;1.90;;
57327;SDS011;43162;51.040;18.244;2023-05-29T11:30:26;5.30;;;1.30;;
57327;SDS011;43162;51.040;18.244;2023-05-29T11:32:51;5.90;;;1.60;;
57327;SDS011;43162;51.040;18.244;2023-05-29T11:35:18;4.00;;;1.60;;
57327;SDS011;43162;51.040;18.244;2023-05-29T11:37:44;4.90;;;1.70;;
57327;SDS011;43162;51.040;18.244;2023-05-29T11:40:15;4.20;;;1.40;;
57327;SDS011;43162;51.040;18.244;2023-05-29T11:42:41;2.40;;;1.70;;
57327;SDS011;43162;51.040;18.244;2023-05-29T11:45:12;5.40;;;2.10;;
57327;SDS011;43162;51.040;18.244;2023-05-29T11:50:17;4.00;;;1.80;;
57327;SDS011;43162;51.040;18.244;2023-05-29T11:52:46;7.60;;;2.00;;
57327;SDS011;43162;51.040;18.244;2023-05-29T11:55:12;4.90;;;1.80;;
57327;SDS011;43162;51.040;18.244;2023-05-29T11:57:37;5.00;;;2.10;;
57327;SDS011;43162;51.040;18.244;2023-05-29T12:00:04;11.30;;;2.00;;
57327;SDS011;43162;51.040;18.244;2023-05-29T12:02:37;5.70;;;2.00;;
57327;SDS011;43162;51.040;18.244;2023-05-29T12:05:03;4.40;;;1.80;;
57327;SDS011;43162;51.040;18.244;2023-05-29T12:10:11;4.30;;;2.00;;
57327;SDS011;43162;51.040;18.244;2023-05-29T12:12:37;2.70;;;1.70;;
57327;SDS011;43162;51.040;18.244;2023-05-29T12:15:04;7.50;;;2.30;;
57327;SDS011;43162;51.040;18.244;2023-05-29T12:17:32;9.60;;;2.20;;
57327;SDS011;43162;51.040;18.244;2023-05-29T12:19:58;4.90;;;1.80;;
57327;SDS011;43162;51.040;18.244;2023-05-29T12:22:33;3.60;;;2.20;;
57327;SDS011;43162;51.040;18.244;2023-05-29T12:25:05;9.60;;;2.00;;
57327;SDS011;43162;51.040;18.244;2023-05-29T12:27:32;8.10;;;1.90;;
57327;SDS011;43162;51.040;18.244;2023-05-29T12:30:01;4.00;;;1.80;;
57327;SDS011;43162;51.040;18.244;2023-05-29T12:32:37;4.00;;;1.50;;
57327;SDS011;43162;51.040;18.244;2023-05-29T12:35:12;3.00;;;1.60;;
57327;SDS011;43162;51.040;18.244;2023-05-29T12:37:45;9.00;;;1.70;;
57327;SDS011;43162;51.040;18.244;2023-05-29T12:40:21;9.70;;;1.50;;
57327;SDS011;43162;51.040;18.244;2023-05-29T12:42:48;9.90;;;2.00;;
57327;SDS011;43162;51.040;18.244;2023-05-29T12:45:14;12.50;;;1.80;;
57327;SDS011;43162;51.040;18.244;2023-05-29T12:50:32;5.50;;;1.90;;
57327;SDS011;43162;51.040;18.244;2023-05-29T12:53:01;5.10;;;1.70;;
57327;SDS011;43162;51.040;18.244;2023-05-29T12:55:27;3.90;;;1.70;;
57327;SDS011;43162;51.040;18.244;2023-05-29T12:57:54;7.40;;;3.20;;
57327;SDS011;43162;51.040;18.244;2023-05-29T13:00:19;16.60;;;2.00;;
57327;SDS011;43162;51.040;18.244;2023-05-29T13:02:46;8.20;;;1.60;;
57327;SDS011;43162;51.040;18.244;2023-05-29T13:05:12;2.70;;;1.50;;
57327;SDS011;43162;51.040;18.244;2023-05-29T13:07:38;10.20;;;1.60;;
57327;SDS011;43162;51.040;18.244;2023-05-29T13:10:03;8.20;;;2.30;;
57327;SDS011;43162;51.040;18.244;2023-05-29T13:12:29;4.90;;;2.20;;
57327;SDS011;43162;51.040;18.244;2023-05-29T13:14:54;3.80;;;2.40;;
57327;SDS011;43162;51.040;18.244;2023-05-29T13:17:23;3.00;;;1.60;;
57327;SDS011;43162;51.040;18.244;2023-05-29T13:19:49;6.90;;;1.80;;
57327;SDS011;43162;51.040;18.244;2023-05-29T13:22:14;7.70;;;1.60;;
57327;SDS011;43162;51.040;18.244;2023-05-29T13:24:41;10.30;;;1.80;;
57327;SDS011;43162;51.040;18.244;2023-05-29T13:27:06;6.90;;;1.80;;
57327;SDS011;43162;51.040;18.244;2023-05-29T13:29:32;3.60;;;1.80;;
57327;SDS011;43162;51.040;18.244;2023-05-29T13:31:58;5.90;;;1.80;;
57327;SDS011;43162;51.040;18.244;2023-05-29T13:34:23;6.80;;;2.00;;
57327;SDS011;43162;51.040;18.244;2023-05-29T13:36:57;3.60;;;1.90;;
57327;SDS011;43162;51.040;18.244;2023-05-29T13:39:22;7.30;;;2.00;;
57327;SDS011;43162;51.040;18.244;2023-05-29T13:41:48;3.00;;;1.80;;
57327;SDS011;43162;51.040;18.244;2023-05-29T13:44:13;7.50;;;1.90;;
57327;SDS011;43162;51.040;18.244;2023-05-29T13:46:39;17.00;;;2.40;;
57327;SDS011;43162;51.040;18.244;2023-05-29T13:49:04;18.50;;;2.70;;
57327;SDS011;43162;51.040;18.244;2023-05-29T13:51:30;4.90;;;1.90;;
57327;SDS011;43162;51.040;18.244;2023-05-29T13:53:55;7.90;;;1.90;;
57327;SDS011;43162;51.040;18.244;2023-05-29T13:56:21;4.20;;;2.30;;
57327;SDS011;43162;51.040;18.244;2023-05-29T13:58:47;3.00;;;1.80;;
57327;SDS011;43162;51.040;18.244;2023-05-29T14:01:13;5.00;;;1.80;;
57327;SDS011;43162;51.040;18.244;2023-05-29T14:03:40;8.00;;;1.60;;
57327;SDS011;43162;51.040;18.244;2023-05-29T14:06:05;9.30;;;1.80;;
57327;SDS011;43162;51.040;18.244;2023-05-29T14:08:31;3.40;;;1.70;;
57327;SDS011;43162;51.040;18.244;2023-05-29T14:10:57;5.70;;;1.80;;
57327;SDS011;43162;51.040;18.244;2023-05-29T14:13:22;5.40;;;1.80;;
57327;SDS011;43162;51.040;18.244;2023-05-29T14:15:48;4.20;;;1.70;;
57327;SDS011;43162;51.040;18.244;2023-05-29T14:18:16;4.60;;;1.30;;
57327;SDS011;43162;51.040;18.244;2023-05-29T14:20:42;3.20;;;1.90;;
57327;SDS011;43162;51.040;18.244;2023-05-29T14:23:07;6.50;;;2.40;;
57327;SDS011;43162;51.040;18.244;2023-05-29T14:25:39;8.80;;;1.70;;
57327;SDS011;43162;51.040;18.244;2023-05-29T14:28:04;4.30;;;1.80;;
57327;SDS011;43162;51.040;18.244;2023-05-29T14:30:31;4.20;;;2.20;;
57327;SDS011;43162;51.040;18.244;2023-05-29T14:32:57;2.80;;;1.80;;
57327;SDS011;43162;51.040;18.244;2023-05-29T14:35:22;4.30;;;1.70;;
57327;SDS011;43162;51.040;18.244;2023-05-29T14:37:48;3.70;;;1.60;;
57327;SDS011;43162;51.040;18.244;2023-05-29T14:40:14;7.50;;;1.70;;
57327;SDS011;43162;51.040;18.244;2023-05-29T14:42:40;2.40;;;1.60;;
57327;SDS011;43162;51.040;18.244;2023-05-29T14:45:05;8.80;;;2.90;;
57327;SDS011;43162;51.040;18.244;2023-05-29T14:47:32;4.50;;;2.20;;
57327;SDS011;43162;51.040;18.244;2023-05-29T14:49:58;4.30;;;1.90;;
57327;SDS011;43162;51.040;18.244;2023-05-29T14:52:24;8.90;;;2.00;;
57327;SDS011;43162;51.040;18.244;2023-05-29T14:54:49;7.70;;;2.00;;
57327;SDS011;43162;51.040;18.244;2023-05-29T14:57:15;3.70;;;2.20;;